PWSweather.com
Personal Weather Stations
Station Observations
KCTHAMDEN
Dunbar Hill, Hamden, CT 06514

Dunbar HillHamden, CT 06514

Lat: 41.365437, Lon: -72.956532

Elevation: 200

Station Type: Davis Vantage Pro2+

www.hamdenweather.com

High Low Average
Temperature 91.3°F32.9°C 71.5°F21.9°C 80.0°F26.7°C
Dew Point 80.9°F27.2°C 69.8°F21.0°C 74.3°F23.5°C
Winds 4.0 mph 6.4 kmh Calm Calm 1.0 mph SE1.6 kmh SE
Wind Gusts 11.0 mph17.7 kmh -- 1.0 mph1.6 kmh
Humidity 98% 62% 84%
Pressure 30.00 in1015.9 mb 29.89 in1012.2 mb -
Precipitation 0.00 in0.0 mm - -
Hour Temp Dew Point Humidity Winds Wind Gusts Pressure Precip Precip Rate Daily Precip Total
12:00 AM 72.6°F22.6°C 70.5°F21.4°C 93% Calm Calm -- 30.00 in1015.9 mb - 0.00 in0.0 mm 0.00 in0.0 mm
12:15 AM 72.5°F22.5°C 70.4°F21.3°C 93% Calm Calm -- 30.00 in1015.9 mb - 0.00 in0.0 mm 0.00 in0.0 mm
12:30 AM 72.4°F22.4°C 70.6°F21.4°C 94% Calm Calm -- 29.99 in1015.6 mb - 0.00 in0.0 mm 0.00 in0.0 mm
12:45 AM 72.1°F22.3°C 70.3°F21.3°C 94% Calm Calm -- 29.99 in1015.6 mb - 0.00 in0.0 mm 0.00 in0.0 mm
01:00 AM 71.9°F22.2°C 70.1°F21.2°C 94% Calm Calm -- 29.99 in1015.6 mb - 0.00 in0.0 mm 0.00 in0.0 mm
01:15 AM 71.6°F22.0°C 69.8°F21.0°C 94% Calm Calm -- 29.99 in1015.6 mb - 0.00 in0.0 mm 0.00 in0.0 mm
01:30 AM 71.5°F21.9°C 70.0°F21.1°C 95% Calm Calm -- 29.98 in1015.2 mb - 0.00 in0.0 mm 0.00 in0.0 mm
01:45 AM 71.6°F22.0°C 70.1°F21.2°C 95% Calm Calm -- 29.98 in1015.2 mb - 0.00 in0.0 mm 0.00 in0.0 mm
02:00 AM 71.6°F22.0°C 70.1°F21.2°C 95% Calm Calm -- 29.98 in1015.2 mb - 0.00 in0.0 mm 0.00 in0.0 mm
02:15 AM 71.6°F22.0°C 70.1°F21.2°C 95% Calm Calm -- 29.98 in1015.2 mb - 0.00 in0.0 mm 0.00 in0.0 mm
02:30 AM 71.5°F21.9°C 70.0°F21.1°C 95% Calm Calm -- 29.98 in1015.2 mb - 0.00 in0.0 mm 0.00 in0.0 mm
02:45 AM 71.5°F21.9°C 70.0°F21.1°C 95% Calm Calm -- 29.98 in1015.2 mb - 0.00 in0.0 mm 0.00 in0.0 mm
03:00 AM 71.5°F21.9°C 70.3°F21.3°C 96% Calm Calm -- 29.98 in1015.2 mb - 0.00 in0.0 mm 0.00 in0.0 mm
03:15 AM 71.6°F22.0°C 70.4°F21.3°C 96% Calm Calm -- 29.98 in1015.2 mb - 0.00 in0.0 mm 0.00 in0.0 mm
03:30 AM 71.7°F22.1°C 70.5°F21.4°C 96% Calm Calm -- 29.98 in1015.2 mb - 0.00 in0.0 mm 0.00 in0.0 mm
03:45 AM 71.8°F22.1°C 70.6°F21.4°C 96% Calm Calm -- 29.98 in1015.2 mb - 0.00 in0.0 mm 0.00 in0.0 mm
04:00 AM 72.0°F22.2°C 70.8°F21.6°C 96% Calm Calm -- 29.98 in1015.2 mb - 0.00 in0.0 mm 0.00 in0.0 mm
04:15 AM 72.1°F22.3°C 70.9°F21.6°C 96% Calm Calm -- 29.98 in1015.2 mb - 0.00 in0.0 mm 0.00 in0.0 mm
04:30 AM 72.1°F22.3°C 70.9°F21.6°C 96% Calm Calm -- 29.98 in1015.2 mb - 0.00 in0.0 mm 0.00 in0.0 mm
04:45 AM 72.1°F22.3°C 71.2°F21.8°C 97% Calm Calm -- 29.98 in1015.2 mb - 0.00 in0.0 mm 0.00 in0.0 mm
05:00 AM 72.0°F22.2°C 71.1°F21.7°C 97% Calm Calm -- 29.98 in1015.2 mb - 0.00 in0.0 mm 0.00 in0.0 mm
05:15 AM 71.8°F22.1°C 70.9°F21.6°C 97% Calm Calm -- 29.99 in1015.6 mb - 0.00 in0.0 mm 0.00 in0.0 mm
05:30 AM 71.7°F22.1°C 70.8°F21.6°C 97% Calm Calm -- 29.99 in1015.6 mb - 0.00 in0.0 mm 0.00 in0.0 mm
05:45 AM 71.7°F22.1°C 70.8°F21.6°C 97% Calm Calm -- 29.99 in1015.6 mb - 0.00 in0.0 mm 0.00 in0.0 mm
06:00 AM 71.9°F22.2°C 71.0°F21.7°C 97% Calm Calm -- 29.99 in1015.6 mb - 0.00 in0.0 mm 0.00 in0.0 mm
06:15 AM 72.3°F22.4°C 71.4°F21.9°C 97% Calm Calm -- 30.00 in1015.9 mb - 0.00 in0.0 mm 0.00 in0.0 mm
06:30 AM 73.3°F22.9°C 72.7°F22.6°C 98% Calm Calm -- 30.00 in1015.9 mb - 0.00 in0.0 mm 0.00 in0.0 mm
06:45 AM 74.5°F23.6°C 73.9°F23.3°C 98% Calm Calm -- 30.00 in1015.9 mb - 0.00 in0.0 mm 0.00 in0.0 mm
07:00 AM 75.5°F24.2°C 74.9°F23.8°C 98% Calm Calm -- 30.00 in1015.9 mb - 0.00 in0.0 mm 0.00 in0.0 mm
07:15 AM 76.7°F24.8°C 75.8°F24.3°C 97% 0.2 mph SSW0.3 kmh SSW -- 30.00 in1015.9 mb - 0.00 in0.0 mm 0.00 in0.0 mm
07:30 AM 78.1°F25.6°C 76.6°F24.8°C 95% 1.0 mph E1.6 kmh E 3.0 mph4.8 kmh 29.99 in1015.6 mb - 0.00 in0.0 mm 0.00 in0.0 mm
07:45 AM 79.7°F26.5°C 76.8°F24.9°C 91% 0.3 mph ESE0.5 kmh ESE 1.0 mph1.6 kmh 29.99 in1015.6 mb - 0.00 in0.0 mm 0.00 in0.0 mm
08:00 AM 81.4°F27.4°C 76.8°F24.9°C 86% 1.0 mph E1.6 kmh E 2.0 mph3.2 kmh 29.98 in1015.2 mb - 0.00 in0.0 mm 0.00 in0.0 mm
08:15 AM 83.0°F28.3°C 77.3°F25.2°C 83% 1.4 mph SE2.3 kmh SE 3.0 mph4.8 kmh 29.98 in1015.2 mb - 0.00 in0.0 mm 0.00 in0.0 mm
08:30 AM 84.4°F29.1°C 78.3°F25.7°C 82% 1.7 mph E2.7 kmh E 4.0 mph6.4 kmh 29.98 in1015.2 mb - 0.00 in0.0 mm 0.00 in0.0 mm
08:45 AM 85.1°F29.5°C 77.8°F25.4°C 79% 0.8 mph SW1.3 kmh SW 3.0 mph4.8 kmh 29.98 in1015.2 mb - 0.00 in0.0 mm 0.00 in0.0 mm
09:00 AM 86.1°F30.1°C 78.8°F26.0°C 79% 1.5 mph SSW2.4 kmh SSW 4.0 mph6.4 kmh 29.98 in1015.2 mb - 0.00 in0.0 mm 0.00 in0.0 mm
09:15 AM 86.5°F30.3°C 77.6°F25.3°C 75% 0.8 mph NE1.3 kmh NE 1.0 mph1.6 kmh 29.98 in1015.2 mb - 0.00 in0.0 mm 0.00 in0.0 mm
09:30 AM 87.1°F30.6°C 78.2°F25.7°C 75% 0.8 mph NE1.3 kmh NE 2.0 mph3.2 kmh 29.98 in1015.2 mb - 0.00 in0.0 mm 0.00 in0.0 mm
09:45 AM 88.4°F31.3°C 79.8°F26.6°C 76% 0.7 mph WSW1.1 kmh WSW 2.0 mph3.2 kmh 29.97 in1014.9 mb - 0.00 in0.0 mm 0.00 in0.0 mm
10:00 AM 88.9°F31.6°C 78.7°F25.9°C 72% 1.3 mph SSE2.1 kmh SSE 1.0 mph1.6 kmh 29.97 in1014.9 mb - 0.00 in0.0 mm 0.00 in0.0 mm
10:15 AM 89.2°F31.8°C 79.4°F26.3°C 73% 2.2 mph SE3.5 kmh SE 4.0 mph6.4 kmh 29.97 in1014.9 mb - 0.00 in0.0 mm 0.00 in0.0 mm
10:30 AM 89.9°F32.2°C 80.9°F27.2°C 75% 1.0 mph SW1.6 kmh SW 4.0 mph6.4 kmh 29.97 in1014.9 mb - 0.00 in0.0 mm 0.00 in0.0 mm
10:45 AM 89.9°F32.2°C 75.1°F23.9°C 62% 0.4 mph SE0.6 kmh SE 3.0 mph4.8 kmh 29.96 in1014.6 mb - 0.00 in0.0 mm 0.00 in0.0 mm
11:00 AM 89.9°F32.2°C 77.1°F25.1°C 66% 3.1 mph S5.0 kmh S 6.0 mph9.7 kmh 29.96 in1014.6 mb - 0.00 in0.0 mm 0.00 in0.0 mm
11:15 AM 90.6°F32.6°C 79.0°F26.1°C 69% 2.1 mph ESE3.4 kmh ESE 3.0 mph4.8 kmh 29.96 in1014.6 mb - 0.00 in0.0 mm 0.00 in0.0 mm
11:30 AM 90.3°F32.4°C 77.4°F25.2°C 66% 1.8 mph S2.9 kmh S 7.0 mph11.3 kmh 29.96 in1014.6 mb - 0.00 in0.0 mm 0.00 in0.0 mm
11:45 AM 90.4°F32.4°C 76.6°F24.8°C 64% 1.9 mph SE3.1 kmh SE 4.0 mph6.4 kmh 29.95 in1014.2 mb - 0.00 in0.0 mm 0.00 in0.0 mm
12:00 PM 90.7°F32.6°C 79.1°F26.2°C 69% 1.1 mph S1.8 kmh S 2.0 mph3.2 kmh 29.95 in1014.2 mb - 0.00 in0.0 mm 0.00 in0.0 mm
12:15 PM 91.0°F32.8°C 78.5°F25.8°C 67% 1.0 mph S1.6 kmh S 2.0 mph3.2 kmh 29.95 in1014.2 mb - 0.00 in0.0 mm 0.00 in0.0 mm
12:30 PM 91.2°F32.9°C 77.8°F25.4°C 65% 3.2 mph E5.1 kmh E 3.0 mph4.8 kmh 29.94 in1013.9 mb - 0.00 in0.0 mm 0.00 in0.0 mm
12:45 PM 90.8°F32.7°C 77.4°F25.2°C 65% 1.8 mph ESE2.9 kmh ESE 2.0 mph3.2 kmh 29.93 in1013.5 mb - 0.00 in0.0 mm 0.00 in0.0 mm
01:00 PM 90.7°F32.6°C 77.3°F25.2°C 65% 4.0 mph S6.4 kmh S 5.0 mph8.0 kmh 29.93 in1013.5 mb - 0.00 in0.0 mm 0.00 in0.0 mm
01:15 PM 91.0°F32.8°C 79.8°F26.6°C 70% 1.6 mph NE2.6 kmh NE 6.0 mph9.7 kmh 29.93 in1013.5 mb - 0.00 in0.0 mm 0.00 in0.0 mm
01:30 PM 90.5°F32.5°C 77.1°F25.1°C 65% 2.1 mph SSE3.4 kmh SSE 2.0 mph3.2 kmh 29.92 in1013.2 mb - 0.00 in0.0 mm 0.00 in0.0 mm
01:45 PM 90.1°F32.3°C 79.0°F26.1°C 70% 2.0 mph SE3.2 kmh SE 11.0 mph17.7 kmh 29.92 in1013.2 mb - 0.00 in0.0 mm 0.00 in0.0 mm
02:00 PM 90.4°F32.4°C 77.9°F25.5°C 67% 1.4 mph SSE2.3 kmh SSE 4.0 mph6.4 kmh 29.92 in1013.2 mb - 0.00 in0.0 mm 0.00 in0.0 mm
02:15 PM 91.3°F32.9°C 79.3°F26.3°C 68% 1.7 mph SE2.7 kmh SE 3.0 mph4.8 kmh 29.91 in1012.9 mb - 0.00 in0.0 mm 0.00 in0.0 mm
02:30 PM 91.3°F32.9°C 77.4°F25.2°C 64% 1.0 mph S1.6 kmh S 1.0 mph1.6 kmh 29.90 in1012.5 mb - 0.00 in0.0 mm 0.00 in0.0 mm
02:45 PM 90.8°F32.7°C 78.7°F25.9°C 68% 2.7 mph ESE4.3 kmh ESE 3.0 mph4.8 kmh 29.90 in1012.5 mb - 0.00 in0.0 mm 0.00 in0.0 mm
03:00 PM 89.7°F32.1°C 77.8°F25.4°C 68% 2.8 mph SE4.5 kmh SE 6.0 mph9.7 kmh 29.90 in1012.5 mb - 0.00 in0.0 mm 0.00 in0.0 mm
03:15 PM 87.4°F30.8°C 76.4°F24.7°C 70% 0.5 mph S0.8 kmh S 2.0 mph3.2 kmh 29.90 in1012.5 mb - 0.00 in0.0 mm 0.00 in0.0 mm
03:30 PM 85.9°F29.9°C 76.6°F24.8°C 74% 0.4 mph ESE0.6 kmh ESE 1.0 mph1.6 kmh 29.89 in1012.2 mb - 0.00 in0.0 mm 0.00 in0.0 mm
03:45 PM 84.5°F29.2°C 76.1°F24.5°C 76% 1.1 mph E1.8 kmh E 4.0 mph6.4 kmh 29.90 in1012.5 mb - 0.00 in0.0 mm 0.00 in0.0 mm
04:00 PM 83.4°F28.6°C 75.5°F24.2°C 77% 0.3 mph S0.5 kmh S 1.0 mph1.6 kmh 29.90 in1012.5 mb - 0.00 in0.0 mm 0.00 in0.0 mm
04:15 PM 82.6°F28.1°C 75.5°F24.2°C 79% 0.1 mph E0.2 kmh E -- 29.89 in1012.2 mb - 0.00 in0.0 mm 0.00 in0.0 mm
04:30 PM 82.1°F27.8°C 75.7°F24.3°C 81% 0.9 mph SE1.4 kmh SE 4.0 mph6.4 kmh 29.90 in1012.5 mb - 0.00 in0.0 mm 0.00 in0.0 mm
04:45 PM 81.9°F27.7°C 75.5°F24.2°C 81% 0.1 mph WSW0.2 kmh WSW -- 29.90 in1012.5 mb - 0.00 in0.0 mm 0.00 in0.0 mm
05:00 PM 82.6°F28.1°C 76.2°F24.6°C 81% 0.6 mph NE1.0 kmh NE 2.0 mph3.2 kmh 29.91 in1012.9 mb - 0.00 in0.0 mm 0.00 in0.0 mm
05:15 PM 83.5°F28.6°C 77.0°F25.0°C 81% 0.1 mph SE0.2 kmh SE 1.0 mph1.6 kmh 29.91 in1012.9 mb - 0.00 in0.0 mm 0.00 in0.0 mm
05:30 PM 83.6°F28.7°C 76.8°F24.9°C 80% 0.8 mph E1.3 kmh E 6.0 mph9.7 kmh 29.91 in1012.9 mb - 0.00 in0.0 mm 0.00 in0.0 mm
05:45 PM 82.9°F28.3°C 75.7°F24.3°C 79% 0.2 mph SSE0.3 kmh SSE 2.0 mph3.2 kmh 29.91 in1012.9 mb - 0.00 in0.0 mm 0.00 in0.0 mm
06:00 PM 82.0°F27.8°C 75.6°F24.2°C 81% 1.2 mph S1.9 kmh S 6.0 mph9.7 kmh 29.91 in1012.9 mb - 0.00 in0.0 mm 0.00 in0.0 mm
06:15 PM 81.1°F27.3°C 75.1°F23.9°C 82% 0.1 mph S0.2 kmh S 1.0 mph1.6 kmh 29.91 in1012.9 mb - 0.00 in0.0 mm 0.00 in0.0 mm
06:30 PM 80.6°F27.0°C 74.9°F23.8°C 83% 0.2 mph S0.3 kmh S 2.0 mph3.2 kmh 29.91 in1012.9 mb - 0.00 in0.0 mm 0.00 in0.0 mm
06:45 PM 80.0°F26.7°C 75.1°F23.9°C 85% 0.2 mph SE0.3 kmh SE -- 29.91 in1012.9 mb - 0.00 in0.0 mm 0.00 in0.0 mm
07:00 PM 79.4°F26.3°C 74.8°F23.8°C 86% Calm Calm -- 29.90 in1012.5 mb - 0.00 in0.0 mm 0.00 in0.0 mm
07:15 PM 79.0°F26.1°C 74.8°F23.8°C 87% Calm Calm -- 29.90 in1012.5 mb - 0.00 in0.0 mm 0.00 in0.0 mm
07:30 PM 78.5°F25.8°C 74.3°F23.5°C 87% Calm Calm -- 29.89 in1012.2 mb - 0.00 in0.0 mm 0.00 in0.0 mm
07:45 PM 78.1°F25.6°C 73.6°F23.1°C 86% Calm Calm -- 29.91 in1012.9 mb - 0.00 in0.0 mm 0.00 in0.0 mm
08:00 PM 77.7°F25.4°C 73.2°F22.9°C 86% Calm Calm -- 29.92 in1013.2 mb - 0.00 in0.0 mm 0.00 in0.0 mm
08:15 PM 77.5°F25.3°C 72.7°F22.6°C 85% Calm Calm -- 29.93 in1013.5 mb - 0.00 in0.0 mm 0.00 in0.0 mm
08:30 PM 77.3°F25.2°C 72.4°F22.4°C 85% Calm Calm -- 29.94 in1013.9 mb - 0.00 in0.0 mm 0.00 in0.0 mm
08:45 PM 77.1°F25.1°C 72.2°F22.3°C 85% Calm Calm -- 29.94 in1013.9 mb - 0.00 in0.0 mm 0.00 in0.0 mm
09:00 PM 76.8°F24.9°C 71.9°F22.2°C 85% Calm Calm -- 29.93 in1013.5 mb - 0.00 in0.0 mm 0.00 in0.0 mm
09:15 PM 76.5°F24.7°C 71.7°F22.1°C 85% Calm Calm -- 29.92 in1013.2 mb - 0.00 in0.0 mm 0.00 in0.0 mm
09:30 PM 76.3°F24.6°C 71.8°F22.1°C 86% Calm Calm -- 29.93 in1013.5 mb - 0.00 in0.0 mm 0.00 in0.0 mm
09:45 PM 76.0°F24.4°C 71.8°F22.1°C 87% Calm Calm -- 29.92 in1013.2 mb - 0.00 in0.0 mm 0.00 in0.0 mm
10:00 PM 75.7°F24.3°C 71.9°F22.2°C 88% Calm Calm -- 29.92 in1013.2 mb - 0.00 in0.0 mm 0.00 in0.0 mm
10:15 PM 75.4°F24.1°C 71.6°F22.0°C 88% Calm Calm 1.0 mph1.6 kmh 29.92 in1013.2 mb - 0.00 in0.0 mm 0.00 in0.0 mm
10:30 PM 75.1°F23.9°C 71.6°F22.0°C 89% Calm Calm -- 29.93 in1013.5 mb - 0.00 in0.0 mm 0.00 in0.0 mm
10:45 PM 74.8°F23.8°C 71.7°F22.1°C 90% 0.1 mph SSW0.2 kmh SSW -- 29.93 in1013.5 mb - 0.00 in0.0 mm 0.00 in0.0 mm
11:00 PM 74.7°F23.7°C 71.6°F22.0°C 90% 0.4 mph SSW0.6 kmh SSW 2.0 mph3.2 kmh 29.93 in1013.5 mb - 0.00 in0.0 mm 0.00 in0.0 mm
11:15 PM 74.5°F23.6°C 71.4°F21.9°C 90% Calm Calm -- 29.92 in1013.2 mb - 0.00 in0.0 mm 0.00 in0.0 mm
11:30 PM 74.3°F23.5°C 71.2°F21.8°C 90% Calm Calm -- 29.92 in1013.2 mb - 0.00 in0.0 mm 0.00 in0.0 mm
11:45 PM 74.0°F23.3°C 70.8°F21.6°C 90% Calm Calm -- 29.92 in1013.2 mb - 0.00 in0.0 mm 0.00 in0.0 mm